Time;durP1;ratioP1;P1;durP2;ratioP2;P2;SDS_P1;SDS_P2;PMS_P1;PMS_P2;Temp;Humidity;BMP_temperature;BMP_pressure;BME280_temperature;BME280_humidity;BME280_pressure;Samples;Min_cycle;Max_cycle;Signal;HPM_P1;HPM_P2
2022/06/11 00:01:13;;;;;;;3.38;1.10;;;;;;;;;;5052409;28;20041;-81
2022/06/11 00:03:40;;;;;;;3.38;1.10;;;;;;;;;;5050527;28;20029;-82
2022/06/11 00:06:06;;;;;;;1.48;0.93;;;;;;;;;;5052297;28;20047;-82
2022/06/11 00:08:33;;;;;;;2.75;1.20;;;;;;;;;;5052043;28;20366;-82
2022/06/11 00:11:00;;;;;;;4.55;1.38;;;;;;;;;;5051821;28;20047;-81
2022/06/11 00:13:26;;;;;;;4.63;1.00;;;;;;;;;;5053949;28;20078;-81
2022/06/11 00:15:53;;;;;;;2.53;0.88;;;;;;;;;;5050780;28;20021;-81
2022/06/11 00:18:20;;;;;;;1.90;1.15;;;;;;;;;;5051365;28;20027;-81
2022/06/11 00:20:47;;;;;;;2.88;1.02;;;;;;;;;;5050500;28;20029;-81
2022/06/11 00:23:13;;;;;;;5.13;1.08;;;;;;;;;;5051686;28;20360;-81
2022/06/11 00:25:40;;;;;;;4.00;1.30;;;;;;;;;;5052081;28;20071;-82
2022/06/11 00:28:07;;;;;;;5.43;1.10;;;;;;;;;;5053420;28;20025;-81
2022/06/11 00:30:33;;;;;;;3.20;1.20;;;;;;;;;;5051779;28;20027;-81
2022/06/11 00:33:00;;;;;;;5.15;1.23;;;;;;;;;;5051140;28;20031;-81
2022/06/11 00:35:27;;;;;;;3.10;1.00;;;;;;;;;;5051555;28;20051;-81
2022/06/11 00:37:54;;;;;;;1.67;0.88;;;;;;;;;;5050739;28;20048;-81
2022/06/11 00:40:21;;;;;;;2.13;1.20;;;;;;;;;;5053133;28;20128;-81
2022/06/11 00:42:48;;;;;;;5.00;0.88;;;;;;;;;;5050092;28;20048;-81
2022/06/11 00:45:14;;;;;;;4.65;1.00;;;;;;;;;;5051438;28;20505;-81
2022/06/11 00:47:41;;;;;;;4.18;1.00;;;;;;;;;;5051055;28;20075;-81
2022/06/11 00:50:24;;;;;;;6.80;1.20;;;;;;;;;;5051411;28;20417;-81
2022/06/11 00:52:51;;;;;;;1.70;1.00;;;;;;;;;;5051152;28;20099;-81
2022/06/11 00:55:22;;;;;;;2.45;0.80;;;;;;;;;;5053543;28;20052;-81
2022/06/11 00:57:51;;;;;;;2.70;0.93;;;;;;;;;;5050226;28;20021;-81
2022/06/11 01:00:21;;;;;;;3.70;1.27;;;;;;;;;;5051061;28;20447;-81
2022/06/11 01:02:48;;;;;;;3.07;1.10;;;;;;;;;;5050636;28;20025;-81
2022/06/11 01:05:16;;;;;;;3.28;1.38;;;;;;;;;;5051093;28;20552;-81
2022/06/11 01:07:51;;;;;;;5.22;1.00;;;;;;;;;;5049996;28;20025;-81
2022/06/11 01:10:20;;;;;;;5.25;1.00;;;;;;;;;;5053002;28;20035;-81
2022/06/11 01:12:59;;;;;;;2.67;1.00;;;;;;;;;;5050888;28;20021;-81
2022/06/11 01:15:30;;;;;;;1.48;1.00;;;;;;;;;;5050775;28;20025;-81
2022/06/11 01:17:56;;;;;;;;;;;;;;;;;;5049255;28;20043;-81
2022/06/11 01:20:39;;;;;;;3.70;0.88;;;;;;;;;;5049624;28;19908;-81
2022/06/11 01:23:24;;;;;;;1.90;1.10;;;;;;;;;;5036256;28;20017;-81
2022/06/11 01:25:59;;;;;;;5.13;1.27;;;;;;;;;;5050779;28;20045;-81
2022/06/11 01:28:34;;;;;;;3.35;0.98;;;;;;;;;;5048926;28;20405;-81
2022/06/11 01:31:10;;;;;;;2.97;0.95;;;;;;;;;;5051385;28;20028;-81
2022/06/11 01:33:51;;;;;;;2.58;1.00;;;;;;;;;;5050434;28;20485;-81
2022/06/11 01:36:18;;;;;;;2.15;1.00;;;;;;;;;;5050401;28;20432;-81
2022/06/11 01:38:50;;;;;;;2.20;1.02;;;;;;;;;;5050634;28;20019;-81
2022/06/11 01:41:33;;;;;;;1.65;1.08;;;;;;;;;;5050444;28;20401;-81
2022/06/11 01:44:11;;;;;;;4.05;1.02;;;;;;;;;;5034115;28;20013;-81
2022/06/11 01:46:40;;;;;;;2.53;1.10;;;;;;;;;;5050737;28;20029;-81
2022/06/11 01:49:29;;;;;;;2.83;0.90;;;;;;;;;;5052326;28;20025;-81
2022/06/11 01:51:56;;;;;;;2.85;1.23;;;;;;;;;;5048745;28;20047;-81
2022/06/11 01:54:28;;;;;;;1.08;0.88;;;;;;;;;;5049670;28;20601;-81
2022/06/11 01:57:02;;;;;;;4.25;1.30;;;;;;;;;;5048721;28;20028;-81
2022/06/11 01:59:43;;;;;;;2.45;0.98;;;;;;;;;;5048442;28;20021;-81
2022/06/11 02:02:32;;;;;;;2.75;1.20;;;;;;;;;;5035972;28;20047;-81
2022/06/11 02:05:02;;;;;;;2.38;1.02;;;;;;;;;;5031670;28;20510;-81
2022/06/11 02:07:34;;;;;;;2.50;1.00;;;;;;;;;;5051644;28;20078;-81
2022/06/11 02:10:12;;;;;;;1.35;0.93;;;;;;;;;;5050822;28;20035;-81
2022/06/11 02:12:42;;;;;;;2.50;0.90;;;;;;;;;;5049953;28;20025;-81
2022/06/11 02:15:14;;;;;;;2.20;1.10;;;;;;;;;;5048625;28;20477;-81
2022/06/11 02:17:42;;;;;;;4.20;1.10;;;;;;;;;;5050058;28;20035;-81
2022/06/11 02:20:14;;;;;;;2.10;1.02;;;;;;;;;;5049671;28;20064;-81
2022/06/11 02:22:43;;;;;;;2.58;1.23;;;;;;;;;;5048951;28;20037;-81
2022/06/11 02:25:17;;;;;;;5.35;1.00;;;;;;;;;;5049627;28;20041;-81
2022/06/11 02:27:43;;;;;;;1.90;1.00;;;;;;;;;;5049903;28;20029;-80
2022/06/11 02:30:12;;;;;;;2.92;1.17;;;;;;;;;;5049233;28;20520;-81
2022/06/11 02:32:38;;;;;;;0.88;0.88;;;;;;;;;;5049505;28;20505;-81
2022/06/11 02:35:07;;;;;;;4.68;1.08;;;;;;;;;;5048099;28;20021;-81
2022/06/11 02:37:38;;;;;;;3.17;1.30;;;;;;;;;;5050912;28;20035;-81
2022/06/11 02:40:09;;;;;;;2.38;1.08;;;;;;;;;;5050957;28;20033;-81
2022/06/11 02:42:35;;;;;;;2.77;1.27;;;;;;;;;;5048289;28;20508;-81
2022/06/11 02:45:01;;;;;;;3.03;1.30;;;;;;;;;;5047734;28;20033;-80
2022/06/11 02:47:28;;;;;;;3.13;1.38;;;;;;;;;;5049630;28;20032;-80
2022/06/11 02:49:54;;;;;;;1.88;1.05;;;;;;;;;;5048760;28;20025;-81
2022/06/11 02:52:22;;;;;;;2.60;1.35;;;;;;;;;;5051738;28;20040;-81
2022/06/11 02:54:52;;;;;;;2.60;1.15;;;;;;;;;;5049266;28;20021;-81
2022/06/11 02:57:21;;;;;;;4.05;1.23;;;;;;;;;;5049683;28;20027;-81
2022/06/11 02:59:47;;;;;;;2.75;1.17;;;;;;;;;;5049196;28;20089;-81
2022/06/11 03:02:14;;;;;;;2.55;1.20;;;;;;;;;;5049460;28;20032;-80
2022/06/11 03:04:40;;;;;;;2.17;1.00;;;;;;;;;;5049823;28;20045;-80
2022/06/11 03:07:08;;;;;;;3.85;1.15;;;;;;;;;;5052350;28;20425;-81
2022/06/11 03:09:35;;;;;;;2.63;1.20;;;;;;;;;;5053323;28;20493;-81
2022/06/11 03:12:04;;;;;;;4.75;1.20;;;;;;;;;;5052758;28;20524;-81
2022/06/11 03:14:30;;;;;;;2.55;1.23;;;;;;;;;;5051994;28;20033;-80
2022/06/11 03:16:56;;;;;;;3.20;1.10;;;;;;;;;;5037335;28;20032;-81
2022/06/11 03:19:23;;;;;;;2.40;1.02;;;;;;;;;;5055000;28;20024;-81
2022/06/11 03:21:51;;;;;;;1.77;1.02;;;;;;;;;;5053165;28;20029;-81
2022/06/11 03:24:17;;;;;;;2.22;1.20;;;;;;;;;;5052795;28;20052;-81
2022/06/11 03:26:44;;;;;;;4.90;1.08;;;;;;;;;;5052745;28;20025;-81
2022/06/11 03:29:11;;;;;;;4.40;1.40;;;;;;;;;;5053141;28;20025;-81
2022/06/11 03:31:38;;;;;;;2.58;1.00;;;;;;;;;;5053482;28;20041;-81
2022/06/11 03:34:04;;;;;;;2.67;1.00;;;;;;;;;;5054352;28;20497;-81
2022/06/11 03:36:31;;;;;;;1.73;1.10;;;;;;;;;;5052680;28;20493;-81
2022/06/11 03:38:58;;;;;;;3.20;1.20;;;;;;;;;;5052622;28;20501;-81
2022/06/11 03:41:24;;;;;;;2.33;1.40;;;;;;;;;;5052418;28;20029;-81
2022/06/11 03:43:51;;;;;;;1.98;1.23;;;;;;;;;;5052614;28;20028;-81
2022/06/11 03:46:18;;;;;;;2.97;1.25;;;;;;;;;;5053040;28;20052;-81
2022/06/11 03:48:45;;;;;;;3.28;1.40;;;;;;;;;;5052511;28;20032;-81
2022/06/11 03:51:11;;;;;;;2.55;1.40;;;;;;;;;;5052465;28;20426;-80
2022/06/11 03:53:38;;;;;;;4.78;1.30;;;;;;;;;;5050899;28;20031;-81
2022/06/11 03:56:06;;;;;;;3.38;1.23;;;;;;;;;;5050973;28;20028;-81
2022/06/11 03:58:33;;;;;;;4.60;1.50;;;;;;;;;;5054031;28;20393;-81
2022/06/11 04:01:14;;;;;;;6.32;1.30;;;;;;;;;;5052812;28;20031;-80
2022/06/11 04:03:42;;;;;;;4.60;1.23;;;;;;;;;;5052114;28;20033;-80
2022/06/11 04:06:09;;;;;;;8.38;1.80;;;;;;;;;;5052042;28;20033;-81
2022/06/11 04:08:37;;;;;;;8.68;1.20;;;;;;;;;;5050889;28;20482;-81
2022/06/11 04:11:04;;;;;;;2.72;1.27;;;;;;;;;;5051599;28;20413;-81
2022/06/11 04:13:31;;;;;;;6.35;1.38;;;;;;;;;;5053849;28;20070;-81
2022/06/11 04:15:59;;;;;;;7.38;1.40;;;;;;;;;;5050138;28;20405;-81
2022/06/11 04:18:36;;;;;;;7.95;1.20;;;;;;;;;;5051495;28;20363;-80
2022/06/11 04:21:04;;;;;;;3.20;1.30;;;;;;;;;;5051583;28;20025;-81
2022/06/11 04:23:30;;;;;;;2.50;1.27;;;;;;;;;;5051684;28;20040;-81
2022/06/11 04:26:01;;;;;;;7.25;1.52;;;;;;;;;;5035730;28;20037;-81
2022/06/11 04:28:28;;;;;;;4.38;1.40;;;;;;;;;;5050202;28;20025;-80
2022/06/11 04:30:55;;;;;;;4.00;1.55;;;;;;;;;;5052329;28;20043;-81
2022/06/11 04:33:22;;;;;;;5.22;1.40;;;;;;;;;;5049947;28;20505;-81
2022/06/11 04:35:48;;;;;;;3.03;1.40;;;;;;;;;;5050323;28;20025;-81
2022/06/11 04:38:15;;;;;;;2.65;1.27;;;;;;;;;;5051551;28;20021;-81
2022/06/11 04:40:41;;;;;;;5.35;1.30;;;;;;;;;;5051330;28;20397;-81
2022/06/11 04:43:07;;;;;;;7.55;1.63;;;;;;;;;;5053306;28;20041;-81
2022/06/11 04:45:34;;;;;;;3.60;1.52;;;;;;;;;;5051361;28;20068;-80
2022/06/11 04:48:00;;;;;;;3.38;1.40;;;;;;;;;;5051524;28;20074;-81
2022/06/11 04:50:26;;;;;;;2.20;1.30;;;;;;;;;;5051412;28;20060;-80
2022/06/11 04:52:53;;;;;;;4.30;1.35;;;;;;;;;;5051273;28;20036;-81
2022/06/11 04:55:20;;;;;;;2.15;1.20;;;;;;;;;;5053369;28;20031;-81
2022/06/11 04:57:47;;;;;;;5.10;1.60;;;;;;;;;;5050918;28;20078;-81
2022/06/11 05:00:19;;;;;;;6.60;1.45;;;;;;;;;;5051109;28;20051;-80
2022/06/11 05:02:45;;;;;;;3.83;1.60;;;;;;;;;;5050929;28;20025;-81
2022/06/11 05:05:12;;;;;;;4.82;1.55;;;;;;;;;;5051200;28;20098;-81
2022/06/11 05:07:38;;;;;;;4.13;1.50;;;;;;;;;;5052037;28;20032;-80
2022/06/11 05:10:06;;;;;;;4.93;1.42;;;;;;;;;;5051907;28;20025;-80
2022/06/11 05:12:32;;;;;;;2.40;1.27;;;;;;;;;;5049333;28;20020;-80
2022/06/11 05:14:58;;;;;;;2.03;1.10;;;;;;;;;;5049414;28;20021;-81
2022/06/11 05:17:25;;;;;;;3.03;1.30;;;;;;;;;;5049747;28;20017;-80
2022/06/11 05:19:51;;;;;;;2.97;1.40;;;;;;;;;;5048834;28;20078;-81
2022/06/11 05:22:18;;;;;;;2.42;1.30;;;;;;;;;;5051801;28;20497;-81
2022/06/11 05:24:44;;;;;;;5.07;1.35;;;;;;;;;;5049990;28;20040;-81
2022/06/11 05:27:15;;;;;;;4.65;1.45;;;;;;;;;;5050708;28;20017;-81
2022/06/11 05:29:48;;;;;;;2.55;1.40;;;;;;;;;;5049675;28;20468;-81
2022/06/11 05:32:16;;;;;;;3.17;1.50;;;;;;;;;;5050775;28;20025;-81
2022/06/11 05:34:42;;;;;;;5.10;1.52;;;;;;;;;;5050798;28;20047;-81
2022/06/11 05:37:09;;;;;;;3.55;1.42;;;;;;;;;;5050063;28;20028;-81
2022/06/11 05:39:36;;;;;;;4.82;1.50;;;;;;;;;;5048047;28;20427;-81
2022/06/11 05:42:02;;;;;;;3.10;1.25;;;;;;;;;;5048888;28;20025;-81
2022/06/11 05:44:28;;;;;;;4.05;1.75;;;;;;;;;;5050180;28;20029;-80
2022/06/11 05:46:55;;;;;;;7.22;1.65;;;;;;;;;;5050567;28;20033;-81
2022/06/11 05:49:24;;;;;;;2.97;1.17;;;;;;;;;;5052424;28;20025;-81
2022/06/11 05:51:53;;;;;;;6.55;1.80;;;;;;;;;;5049596;28;20036;-81
2022/06/11 05:54:21;;;;;;;3.78;1.33;;;;;;;;;;5047451;28;20037;-81
2022/06/11 05:56:48;;;;;;;2.63;1.20;;;;;;;;;;5050093;28;20485;-81
2022/06/11 05:59:23;;;;;;;4.43;1.50;;;;;;;;;;5050095;28;20027;-81
2022/06/11 06:01:50;;;;;;;4.35;1.60;;;;;;;;;;5049969;28;20417;-81
2022/06/11 06:04:17;;;;;;;5.55;1.50;;;;;;;;;;5051832;28;20371;-81
2022/06/11 06:06:43;;;;;;;3.55;1.60;;;;;;;;;;5049678;28;20035;-81
2022/06/11 06:09:09;;;;;;;5.50;1.52;;;;;;;;;;5048733;28;20039;-81
2022/06/11 06:11:36;;;;;;;2.65;1.30;;;;;;;;;;5049710;28;20017;-81
2022/06/11 06:14:02;;;;;;;2.88;1.25;;;;;;;;;;5050088;28;20029;-81
2022/06/11 06:16:30;;;;;;;4.43;1.42;;;;;;;;;;5051427;28;20021;-81
2022/06/11 06:18:57;;;;;;;8.82;1.70;;;;;;;;;;5048912;28;20033;-81
2022/06/11 06:21:26;;;;;;;3.42;1.40;;;;;;;;;;5049230;28;20032;-81
2022/06/11 06:23:53;;;;;;;3.88;1.50;;;;;;;;;;5049702;28;20086;-81
2022/06/11 06:26:19;;;;;;;5.47;1.60;;;;;;;;;;5049613;28;20044;-81
2022/06/11 06:28:46;;;;;;;2.65;1.45;;;;;;;;;;5049982;28;20077;-81
2022/06/11 06:31:13;;;;;;;2.38;1.20;;;;;;;;;;5050597;28;20039;-81
2022/06/11 06:33:39;;;;;;;8.02;1.73;;;;;;;;;;5048228;28;20078;-81
2022/06/11 06:36:06;;;;;;;4.80;1.40;;;;;;;;;;5049292;28;20017;-81
2022/06/11 06:38:33;;;;;;;6.65;1.60;;;;;;;;;;5049860;28;20405;-81
2022/06/11 06:41:00;;;;;;;8.32;1.35;;;;;;;;;;5051629;28;20043;-81
2022/06/11 06:43:27;;;;;;;3.67;1.65;;;;;;;;;;5055842;28;20033;-81
2022/06/11 06:45:53;;;;;;;3.13;1.30;;;;;;;;;;5054179;28;20494;-81
2022/06/11 06:48:19;;;;;;;4.43;1.40;;;;;;;;;;5053482;28;20055;-81
2022/06/11 06:50:46;;;;;;;4.30;1.25;;;;;;;;;;5053218;28;20404;-81
2022/06/11 06:53:12;;;;;;;2.65;1.30;;;;;;;;;;5053897;28;20029;-81
2022/06/11 06:55:38;;;;;;;5.32;1.88;;;;;;;;;;5054051;28;20036;-81
2022/06/11 06:58:05;;;;;;;4.93;1.83;;;;;;;;;;5055312;28;20031;-81
2022/06/11 07:00:31;;;;;;;5.05;1.55;;;;;;;;;;5053630;28;20025;-81
2022/06/11 07:02:57;;;;;;;3.20;1.38;;;;;;;;;;5053184;28;20398;-81
2022/06/11 07:05:25;;;;;;;5.75;1.30;;;;;;;;;;5053202;28;20031;-81
2022/06/11 07:07:52;;;;;;;3.15;1.27;;;;;;;;;;5052580;28;20032;-82
2022/06/11 07:10:19;;;;;;;3.28;1.42;;;;;;;;;;5071721;28;20033;-82
2022/06/11 07:12:46;;;;;;;4.40;1.20;;;;;;;;;;5051027;28;20029;-82
2022/06/11 07:15:12;;;;;;;3.33;1.52;;;;;;;;;;5053390;28;20017;-82
2022/06/11 07:17:41;;;;;;;3.10;1.10;;;;;;;;;;5052982;28;20505;-82
2022/06/11 07:20:12;;;;;;;1.92;0.98;;;;;;;;;;5052711;28;20033;-82
2022/06/11 07:22:44;;;;;;;3.67;1.42;;;;;;;;;;5053697;28;20328;-82
2022/06/11 07:25:11;;;;;;;4.53;1.38;;;;;;;;;;5053055;28;20049;-83
2022/06/11 07:27:39;;;;;;;6.43;1.30;;;;;;;;;;5052762;28;20036;-83
2022/06/11 07:30:09;;;;;;;2.10;1.30;;;;;;;;;;5052925;28;20029;-83
2022/06/11 07:32:35;;;;;;;2.45;1.25;;;;;;;;;;5052873;28;20020;-83
2022/06/11 07:35:06;;;;;;;6.22;1.40;;;;;;;;;;5052418;28;20685;-82
2022/06/11 07:37:32;;;;;;;;;;;;;;;;;;5054481;28;20490;-81
2022/06/11 07:39:59;;;;;;;3.63;1.38;;;;;;;;;;5053136;28;19909;-82
2022/06/11 07:42:25;;;;;;;2.38;1.27;;;;;;;;;;5052693;28;20033;-82
2022/06/11 07:44:51;;;;;;;3.88;1.13;;;;;;;;;;5052396;28;20036;-82
2022/06/11 07:47:53;;;;;;;2.75;1.23;;;;;;;;;;5051031;28;20489;-82
2022/06/11 07:50:04;;;;;;;5.75;1.70;;;;;;;;;;5037752;28;20070;-82
2022/06/11 07:52:31;;;;;;;7.95;1.35;;;;;;;;;;5053015;28;20544;-82
2022/06/11 07:54:57;;;;;;;1.75;1.20;;;;;;;;;;5053382;28;20028;-83
2022/06/11 07:57:23;;;;;;;4.25;1.40;;;;;;;;;;5052115;28;20401;-82
2022/06/11 07:59:50;;;;;;;2.03;1.30;;;;;;;;;;5052226;28;20496;-83
2022/06/11 08:02:16;;;;;;;6.25;1.27;;;;;;;;;;5051944;28;20375;-83
2022/06/11 08:04:43;;;;;;;1.83;1.10;;;;;;;;;;5051940;28;20044;-82
2022/06/11 08:07:09;;;;;;;7.50;1.50;;;;;;;;;;5053541;28;20035;-82
2022/06/11 08:09:35;;;;;;;4.15;1.25;;;;;;;;;;5052086;28;20382;-82
2022/06/11 08:12:01;;;;;;;9.77;2.00;;;;;;;;;;5052269;28;20025;-82
2022/06/11 08:14:28;;;;;;;5.38;1.70;;;;;;;;;;5050750;28;20055;-82
2022/06/11 08:16:54;;;;;;;5.05;1.50;;;;;;;;;;5051818;28;20025;-82
2022/06/11 08:19:21;;;;;;;2.40;1.27;;;;;;;;;;5054028;28;20482;-82
2022/06/11 08:21:47;;;;;;;3.33;1.33;;;;;;;;;;5052100;28;20017;-81
2022/06/11 08:24:14;;;;;;;5.47;1.42;;;;;;;;;;5051733;28;20549;-82
2022/06/11 08:26:40;;;;;;;2.42;1.33;;;;;;;;;;5050166;28;20037;-82
2022/06/11 08:29:07;;;;;;;2.92;1.27;;;;;;;;;;5050321;28;20018;-82
2022/06/11 08:31:33;;;;;;;4.10;1.17;;;;;;;;;;5052711;28;20021;-82
2022/06/11 08:33:59;;;;;;;2.38;1.20;;;;;;;;;;5052610;28;20043;-82
2022/06/11 08:36:26;;;;;;;3.45;1.40;;;;;;;;;;5051995;28;20024;-81
2022/06/11 08:38:52;;;;;;;2.63;0.80;;;;;;;;;;5051526;28;20501;-81
2022/06/11 08:41:20;;;;;;;1.45;1.05;;;;;;;;;;5051779;28;20032;-81
2022/06/11 08:43:55;;;;;;;5.10;1.52;;;;;;;;;;5051587;28;20045;-81
2022/06/11 08:46:22;;;;;;;2.20;1.10;;;;;;;;;;5051839;28;20386;-81
2022/06/11 08:49:12;;;;;;;3.85;1.15;;;;;;;;;;5051115;28;20051;-81
2022/06/11 08:51:49;;;;;;;2.47;1.40;;;;;;;;;;5047106;28;20517;-82
2022/06/11 08:54:20;;;;;;;4.50;1.17;;;;;;;;;;5051133;28;20435;-83
2022/06/11 08:56:47;;;;;;;5.20;1.30;;;;;;;;;;5051198;28;20025;-82
2022/06/11 08:59:16;;;;;;;2.88;1.27;;;;;;;;;;5051231;28;20523;-82
2022/06/11 09:01:48;;;;;;;1.98;1.00;;;;;;;;;;5049955;28;20029;-82
2022/06/11 09:04:39;;;;;;;3.33;1.20;;;;;;;;;;5050641;28;20033;-82
2022/06/11 09:07:26;;;;;;;1.98;1.20;;;;;;;;;;5052903;28;20055;-81
2022/06/11 09:10:07;;;;;;;2.03;1.00;;;;;;;;;;5049298;28;20025;-81
2022/06/11 09:12:50;;;;;;;3.67;1.00;;;;;;;;;;5050807;28;20037;-81
2022/06/11 09:15:16;;;;;;;2.92;1.30;;;;;;;;;;5050585;28;20029;-82
2022/06/11 09:17:51;;;;;;;5.82;1.45;;;;;;;;;;5050566;28;20070;-81
2022/06/11 09:20:44;;;;;;;1.35;1.10;;;;;;;;;;5051036;28;20068;-81
2022/06/11 09:23:13;;;;;;;2.53;1.40;;;;;;;;;;5035460;28;20371;-82
2022/06/11 09:25:55;;;;;;;3.72;1.92;;;;;;;;;;5051123;28;20057;-82
2022/06/11 09:29:00;;;;;;;2.05;1.30;;;;;;;;;;5052102;28;20033;-81
2022/06/11 09:31:52;;;;;;;3.65;1.30;;;;;;;;;;5011032;28;20034;-82
2022/06/11 09:34:19;;;;;;;2.63;1.10;;;;;;;;;;5002907;28;20038;-82
2022/06/11 09:36:52;;;;;;;1.67;1.10;;;;;;;;;;5007297;28;20095;-81
2022/06/11 09:39:19;;;;;;;3.33;1.23;;;;;;;;;;5008582;28;20499;-82
2022/06/11 09:41:50;;;;;;;2.60;1.45;;;;;;;;;;5008486;28;20051;-81
2022/06/11 09:44:49;;;;;;;3.20;1.20;;;;;;;;;;5007739;28;20641;-80
2022/06/11 09:47:18;;;;;;;3.97;1.40;;;;;;;;;;4955838;28;20039;-81
2022/06/11 09:49:47;;;;;;;2.70;1.40;;;;;;;;;;4969006;28;20380;-81
2022/06/11 09:52:21;;;;;;;4.15;1.30;;;;;;;;;;4967160;28;20092;-82
2022/06/11 09:54:50;;;;;;;1.50;1.15;;;;;;;;;;4966222;28;20045;-82
2022/06/11 09:57:29;;;;;;;6.57;1.40;;;;;;;;;;4966709;28;20047;-81
2022/06/11 10:00:21;;;;;;;3.93;1.20;;;;;;;;;;4966038;28;20030;-80
2022/06/11 10:03:09;;;;;;;1.52;1.20;;;;;;;;;;4989420;28;20281;-81
2022/06/11 10:05:47;;;;;;;1.40;1.30;;;;;;;;;;4993221;28;20034;-81
2022/06/11 10:08:28;;;;;;;2.85;1.52;;;;;;;;;;4993225;28;20024;-80
2022/06/11 10:10:55;;;;;;;3.25;1.40;;;;;;;;;;4992506;28;20025;-80
2022/06/11 10:13:33;;;;;;;3.00;1.52;;;;;;;;;;4990734;28;20038;-80
2022/06/11 10:16:02;;;;;;;7.78;1.20;;;;;;;;;;4995333;28;20525;-80
2022/06/11 10:18:30;;;;;;;1.52;1.10;;;;;;;;;;4995959;28;20041;-80
2022/06/11 10:20:59;;;;;;;1.10;1.10;;;;;;;;;;4995670;28;20546;-81
2022/06/11 10:23:34;;;;;;;4.38;1.10;;;;;;;;;;5025301;28;20051;-79
2022/06/11 10:26:11;;;;;;;1.65;1.30;;;;;;;;;;5033856;28;20048;-80
2022/06/11 10:28:51;;;;;;;1.40;1.30;;;;;;;;;;5049818;28;20037;-80
2022/06/11 10:31:20;;;;;;;1.67;1.50;;;;;;;;;;5051083;28;20037;-80
2022/06/11 10:33:55;;;;;;;1.38;1.23;;;;;;;;;;5049553;28;20029;-80
2022/06/11 10:36:22;;;;;;;1.40;1.30;;;;;;;;;;5049542;28;20031;-80
2022/06/11 10:38:59;;;;;;;1.30;1.20;;;;;;;;;;5049483;28;20013;-80
2022/06/11 10:41:30;;;;;;;1.42;1.33;;;;;;;;;;5049586;28;20029;-80
2022/06/11 10:44:09;;;;;;;1.20;0.93;;;;;;;;;;5033779;28;20025;-80
2022/06/11 10:46:37;;;;;;;0.93;0.90;;;;;;;;;;5048041;28;20033;-79
2022/06/11 10:49:04;;;;;;;1.20;1.13;;;;;;;;;;5050808;28;20027;-79
2022/06/11 10:51:34;;;;;;;1.65;1.13;;;;;;;;;;5049364;28;20039;-80
2022/06/11 10:54:09;;;;;;;1.15;1.05;;;;;;;;;;5049414;28;20029;-80
2022/06/11 10:56:41;;;;;;;2.05;1.20;;;;;;;;;;5049329;28;20013;-79
2022/06/11 10:59:18;;;;;;;2.63;1.08;;;;;;;;;;5049402;28;20036;-80
2022/06/11 11:01:47;;;;;;;2.08;1.15;;;;;;;;;;5049914;28;20013;-80
2022/06/11 11:04:13;;;;;;;1.85;1.00;;;;;;;;;;5050198;28;20029;-79
2022/06/11 11:06:41;;;;;;;1.90;1.10;;;;;;;;;;5046661;28;20066;-80
2022/06/11 11:09:10;;;;;;;4.38;1.40;;;;;;;;;;5049310;28;20041;-81
2022/06/11 11:11:37;;;;;;;;;;;;;;;;;;5049262;28;20401;-79
2022/06/11 11:14:15;;;;;;;4.68;2.63;;;;;;;;;;5049560;28;19919;-80
2022/06/11 11:16:47;;;;;;;4.97;1.77;;;;;;;;;;5049953;28;20033;-80
2022/06/11 11:19:13;;;;;;;8.20;1.10;;;;;;;;;;5049868;28;20029;-80
2022/06/11 11:21:48;;;;;;;2.25;1.23;;;;;;;;;;5047955;28;20031;-81
2022/06/11 11:24:16;;;;;;;3.70;1.30;;;;;;;;;;5048953;28;20037;-79
2022/06/11 11:26:46;;;;;;;1.35;1.20;;;;;;;;;;5048630;28;20043;-81
2022/06/11 11:29:16;;;;;;;1.60;1.00;;;;;;;;;;5052975;28;20477;-79
2022/06/11 11:31:44;;;;;;;1.75;1.10;;;;;;;;;;5053273;28;20021;-81
2022/06/11 11:34:16;;;;;;;1.77;1.30;;;;;;;;;;5053336;28;20035;-81
2022/06/11 11:36:42;;;;;;;1.90;1.20;;;;;;;;;;5052646;28;20047;-79
2022/06/11 11:39:17;;;;;;;2.95;1.30;;;;;;;;;;5051663;28;20037;-79
2022/06/11 11:41:50;;;;;;;3.15;1.23;;;;;;;;;;5050646;28;20512;-79
2022/06/11 11:44:17;;;;;;;5.28;4.78;;;;;;;;;;5051342;28;20017;-80
2022/06/11 11:46:48;;;;;;;6.93;6.32;;;;;;;;;;5053082;28;20043;-81
2022/06/11 11:49:25;;;;;;;3.05;1.30;;;;;;;;;;5054617;28;20025;-80
2022/06/11 11:51:52;;;;;;;1.27;1.13;;;;;;;;;;5052819;28;20025;-80
2022/06/11 11:54:21;;;;;;;4.00;1.13;;;;;;;;;;5051968;28;20498;-80
2022/06/11 11:56:47;;;;;;;;;;;;;;;;;;5052748;28;20025;-81
2022/06/11 11:59:16;;;;;;;1.30;1.20;;;;;;;;;;5052432;28;19905;-80
2022/06/11 12:01:43;;;;;;;1.42;1.00;;;;;;;;;;5052838;28;20029;-81
2022/06/11 12:04:28;;;;;;;1.08;0.98;;;;;;;;;;5052058;28;20409;-80
2022/06/11 12:06:56;;;;;;;2.47;0.90;;;;;;;;;;5050918;28;20039;-79
2022/06/11 12:09:28;;;;;;;2.40;0.90;;;;;;;;;;5051815;28;20037;-80
2022/06/11 12:11:57;;;;;;;2.50;1.02;;;;;;;;;;5052080;28;20031;-81
2022/06/11 12:14:29;;;;;;;0.82;0.82;;;;;;;;;;5052161;28;20017;-79
2022/06/11 12:16:59;;;;;;;0.80;0.80;;;;;;;;;;5052291;28;20044;-80
2022/06/11 12:19:25;;;;;;;;;;;;;;;;;;5050373;28;20024;-80
2022/06/11 12:21:54;;;;;;;1.30;1.00;;;;;;;;;;5050857;28;19905;-79
2022/06/11 12:24:33;;;;;;;1.25;0.98;;;;;;;;;;5050010;28;20052;-80
2022/06/11 12:27:01;;;;;;;0.80;0.77;;;;;;;;;;5052138;28;20037;-81
2022/06/11 12:29:46;;;;;;;1.20;0.65;;;;;;;;;;5051652;28;20023;-80
2022/06/11 12:32:12;;;;;;;0.82;0.82;;;;;;;;;;5037893;28;20520;-80
2022/06/11 12:34:38;;;;;;;4.30;0.90;;;;;;;;;;5052666;28;20028;-80
2022/06/11 12:37:14;;;;;;;1.70;0.90;;;;;;;;;;5053201;28;20029;-79
2022/06/11 12:40:03;;;;;;;7.15;1.33;;;;;;;;;;5050983;28;20031;-79
2022/06/11 12:42:53;;;;;;;5.30;1.15;;;;;;;;;;5051383;28;20032;-79
2022/06/11 12:45:19;;;;;;;1.25;0.90;;;;;;;;;;5030576;28;20041;-79
2022/06/11 12:48:04;;;;;;;1.48;0.90;;;;;;;;;;5028947;28;20021;-79
2022/06/11 12:50:33;;;;;;;2.10;0.80;;;;;;;;;;5019410;28;20057;-79
2022/06/11 12:53:04;;;;;;;1.50;0.80;;;;;;;;;;5014834;28;20056;-79
2022/06/11 12:55:49;;;;;;;2.47;0.88;;;;;;;;;;5027235;28;20044;-80
2022/06/11 12:58:50;;;;;;;0.73;0.73;;;;;;;;;;5029851;28;20037;-81
2022/06/11 13:01:24;;;;;;;0.70;0.70;;;;;;;;;;4957584;28;20055;-80
2022/06/11 13:04:08;;;;;;;0.90;0.90;;;;;;;;;;4958231;28;20035;-79
2022/06/11 13:06:40;;;;;;;0.77;0.75;;;;;;;;;;4957629;28;20047;-79
2022/06/11 13:09:40;;;;;;;2.28;0.70;;;;;;;;;;4957997;28;20043;-79
2022/06/11 13:12:15;;;;;;;0.82;0.82;;;;;;;;;;4926762;29;20145;-79
2022/06/11 13:14:54;;;;;;;2.40;0.80;;;;;;;;;;4928675;28;20513;-81
2022/06/11 13:17:23;;;;;;;1.38;0.80;;;;;;;;;;4930484;29;20051;-79
2022/06/11 13:19:56;;;;;;;1.50;0.73;;;;;;;;;;4932336;29;20046;-80
2022/06/11 13:22:28;;;;;;;0.85;0.85;;;;;;;;;;4918921;29;20292;-79
2022/06/11 13:25:00;;;;;;;3.72;0.80;;;;;;;;;;4913839;29;20056;-80
2022/06/11 13:27:49;;;;;;;0.80;0.80;;;;;;;;;;4914156;29;20059;-79
2022/06/11 13:30:31;;;;;;;3.97;1.13;;;;;;;;;;4894746;29;20033;-79
2022/06/11 13:32:57;;;;;;;1.27;0.70;;;;;;;;;;4894857;29;20553;-80
2022/06/11 13:35:26;;;;;;;0.98;0.88;;;;;;;;;;4922799;29;20041;-79
2022/06/11 13:37:53;;;;;;;1.17;0.70;;;;;;;;;;4951742;29;20031;-78
2022/06/11 13:40:22;;;;;;;6.05;0.80;;;;;;;;;;4952420;29;20058;-79
2022/06/11 13:42:53;;;;;;;1.13;0.90;;;;;;;;;;4951709;29;20043;-79
2022/06/11 13:45:38;;;;;;;1.60;0.80;;;;;;;;;;4935582;29;20047;-79
2022/06/11 13:48:23;;;;;;;3.17;0.88;;;;;;;;;;4959664;28;20037;-79
2022/06/11 13:51:15;;;;;;;1.92;1.00;;;;;;;;;;4987956;28;20368;-80
2022/06/11 13:56:56;;;;;;;1.42;0.70;;;;;;;;;;4988811;28;20029;-79
2022/06/11 13:59:22;;;;;;;3.78;0.80;;;;;;;;;;4988709;28;20018;-81
2022/06/11 14:02:09;;;;;;;4.03;0.80;;;;;;;;;;4989002;28;20038;-81
2022/06/11 14:04:35;;;;;;;4.75;0.80;;;;;;;;;;4986796;28;20037;-80
2022/06/11 14:07:04;;;;;;;0.80;0.60;;;;;;;;;;5014993;28;20044;-80
2022/06/11 14:12:36;;;;;;;0.70;0.70;;;;;;;;;;5049859;28;20497;-80
2022/06/11 14:15:25;;;;;;;0.95;0.68;;;;;;;;;;5049742;28;20017;-80
2022/06/11 14:17:56;;;;;;;0.65;0.60;;;;;;;;;;5026590;28;20072;-79
2022/06/11 14:20:22;;;;;;;2.45;0.77;;;;;;;;;;5016480;28;20037;-79
2022/06/11 14:23:09;;;;;;;1.85;0.50;;;;;;;;;;5029267;28;20037;-79
2022/06/11 14:25:49;;;;;;;1.85;0.50;;;;;;;;;;5006385;28;20049;-80
2022/06/11 14:28:18;;;;;;;2.33;0.55;;;;;;;;;;5005666;28;20037;-80
2022/06/11 14:30:44;;;;;;;2.58;0.65;;;;;;;;;;5004980;28;20423;-80
2022/06/11 14:33:14;;;;;;;0.82;0.50;;;;;;;;;;5005222;28;20026;-80
2022/06/11 14:35:40;;;;;;;;;;;;;;;;;;5004737;28;20027;-79
2022/06/11 14:38:36;;;;;;;0.63;0.50;;;;;;;;;;5008414;28;20473;-81
2022/06/11 14:41:08;;;;;;;1.17;0.40;;;;;;;;;;4981730;28;20044;-80
2022/06/11 14:44:02;;;;;;;2.22;0.70;;;;;;;;;;5006273;28;20038;-79
2022/06/11 14:46:38;;;;;;;2.33;0.47;;;;;;;;;;5005903;28;20056;-79
2022/06/11 14:49:11;;;;;;;2.40;0.80;;;;;;;;;;5004164;28;20598;-80
2022/06/11 14:51:38;;;;;;;0.88;0.40;;;;;;;;;;5004865;28;20111;-80
2022/06/11 14:54:23;;;;;;;1.05;0.52;;;;;;;;;;4998149;28;20054;-79
2022/06/11 14:57:10;;;;;;;1.00;0.40;;;;;;;;;;4960220;28;20514;-79
2022/06/11 14:59:55;;;;;;;0.45;0.40;;;;;;;;;;4988968;28;20025;-79
2022/06/11 15:02:40;;;;;;;0.50;0.50;;;;;;;;;;5000737;28;20180;-80
2022/06/11 15:05:19;;;;;;;5.30;0.50;;;;;;;;;;5038600;28;20031;-79
2022/06/11 15:08:04;;;;;;;3.22;0.60;;;;;;;;;;5053539;28;20031;-79
2022/06/11 15:10:36;;;;;;;2.83;0.43;;;;;;;;;;5051775;28;20041;-80
2022/06/11 15:13:12;;;;;;;1.50;0.60;;;;;;;;;;5054097;28;20046;-79
2022/06/11 15:15:50;;;;;;;0.57;0.43;;;;;;;;;;5053178;28;20025;-80